createdAt,value
2018-06-30T00:00:20.020Z,56.68
2018-06-30T00:01:20.017Z,56.48
2018-06-30T00:02:20.020Z,55.42
2018-06-30T00:03:20.021Z,57.06
2018-06-30T00:04:41.030Z,56.58
2018-06-30T00:05:20.019Z,55.52
2018-06-30T00:06:20.025Z,55.71
2018-06-30T00:07:20.028Z,56.36
2018-06-30T00:08:20.029Z,55.42
2018-06-30T00:09:20.027Z,55.33
2018-06-30T00:10:41.047Z,56.39
2018-06-30T00:11:20.033Z,56.29
2018-06-30T00:12:20.039Z,55.71
2018-06-30T00:13:20.037Z,56.39
2018-06-30T00:14:20.035Z,56.74
2018-06-30T00:15:20.040Z,57.32
2018-06-30T00:16:41.053Z,57.42
2018-06-30T00:17:20.047Z,57.42
2018-06-30T00:18:20.042Z,58.77
2018-06-30T00:19:20.044Z,58.19
2018-06-30T00:20:20.051Z,58.48
2018-06-30T00:21:20.052Z,57.87
2018-06-30T00:22:41.066Z,57.20
2018-06-30T00:23:20.057Z,57.78
2018-06-30T00:24:20.055Z,58.45
2018-06-30T00:25:20.059Z,59.13
2018-06-30T00:26:20.060Z,58.26
2018-06-30T00:27:20.060Z,60.38
2018-06-30T00:28:41.072Z,59.61
2018-06-30T00:29:20.068Z,58.94
2018-06-30T00:30:20.070Z,58.94
2018-06-30T00:31:20.069Z,59.52
2018-06-30T00:32:20.074Z,59.58
2018-06-30T00:33:20.071Z,60.26
2018-06-30T00:34:41.081Z,59.68
2018-06-30T00:35:20.077Z,60.26
2018-06-30T00:36:20.077Z,60.16
2018-06-30T00:37:20.076Z,61.03
2018-06-30T00:38:20.124Z,59.97
2018-06-30T00:39:20.081Z,62.57
2018-06-30T00:40:41.093Z,62.54
2018-06-30T00:41:20.083Z,62.54
2018-06-30T00:42:20.090Z,60.32
2018-06-30T00:43:20.087Z,60.32
2018-06-30T00:44:20.091Z,60.42
2018-06-30T00:45:20.090Z,60.80
2018-06-30T00:46:41.102Z,61.90
2018-06-30T00:47:20.099Z,61.03
2018-06-30T00:48:20.097Z,59.84
2018-06-30T00:49:20.100Z,61.80
2018-06-30T00:50:20.099Z,61.13
2018-06-30T00:51:20.106Z,60.26
2018-06-30T00:52:41.111Z,61.00
2018-06-30T00:53:20.101Z,61.61
2018-06-30T00:54:20.104Z,61.58
2018-06-30T00:55:20.109Z,61.77
2018-06-30T00:56:20.115Z,61.87
2018-06-30T00:57:20.109Z,61.77
2018-06-30T00:58:41.120Z,61.77
2018-06-30T00:59:20.117Z,62.15
2018-06-30T01:00:20.115Z,63.02
2018-06-30T01:01:20.113Z,61.96
2018-06-30T01:02:20.116Z,61.29
2018-06-30T01:03:20.120Z,62.15
2018-06-30T01:04:41.128Z,62.54
2018-06-30T01:05:20.119Z,61.77
2018-06-30T01:06:20.126Z,62.15
2018-06-30T01:07:20.122Z,63.79
2018-06-30T01:08:20.124Z,62.63
2018-06-30T01:09:20.126Z,62.93
2018-06-30T01:10:41.132Z,62.54
2018-06-30T01:11:20.128Z,62.63
2018-06-30T01:12:20.134Z,63.02
2018-06-30T01:13:20.135Z,62.15
2018-06-30T01:14:20.132Z,62.18
2018-06-30T01:15:20.137Z,62.45
2018-06-30T01:16:41.145Z,64.08
2018-06-30T01:17:20.137Z,63.79
2018-06-30T01:18:20.139Z,63.79
2018-06-30T01:19:20.149Z,63.06
2018-06-30T01:20:20.138Z,63.15
2018-06-30T01:21:20.140Z,63.31
2018-06-30T01:22:41.153Z,63.34
2018-06-30T01:23:20.143Z,62.76
2018-06-30T01:24:20.145Z,62.86
2018-06-30T01:25:20.146Z,63.34
2018-06-30T01:26:20.148Z,63.34
2018-06-30T01:27:20.151Z,63.44
2018-06-30T01:28:41.159Z,64.89
2018-06-30T01:29:20.152Z,64.47
2018-06-30T01:30:20.154Z,64.86
2018-06-30T01:31:20.153Z,64.76
2018-06-30T01:32:20.155Z,64.86
2018-06-30T01:33:20.156Z,64.76
2018-06-30T01:34:41.167Z,65.24
2018-06-30T01:35:20.154Z,66.01
2018-06-30T01:36:20.159Z,65.33
2018-06-30T01:37:20.159Z,65.05
2018-06-30T01:38:20.165Z,65.24
2018-06-30T01:39:20.164Z,64.95
2018-06-30T01:40:41.169Z,65.63
2018-06-30T01:41:20.164Z,65.43
2018-06-30T01:42:20.167Z,65.81
2018-06-30T01:43:20.167Z,65.53
2018-06-30T01:44:20.170Z,66.78
2018-06-30T01:45:20.169Z,65.72
2018-06-30T01:46:41.181Z,66.97
2018-06-30T01:47:20.178Z,66.39
2018-06-30T01:48:20.174Z,67.74
2018-06-30T01:49:20.176Z,67.46
2018-06-30T01:50:20.172Z,67.46
2018-06-30T01:51:20.176Z,67.84
2018-06-30T01:52:41.197Z,67.03
2018-06-30T01:53:20.178Z,67.74
2018-06-30T01:54:20.183Z,68.19
2018-06-30T01:55:20.181Z,67.23
2018-06-30T01:56:20.181Z,67.16
2018-06-30T01:57:20.183Z,67.07
2018-06-30T01:58:41.203Z,66.78
2018-06-30T01:59:20.185Z,67.07
2018-06-30T02:00:20.187Z,67.74
2018-06-30T02:01:20.190Z,65.81
2018-06-30T02:02:20.189Z,65.81
2018-06-30T02:03:20.191Z,67.07
2018-06-30T02:04:41.202Z,67.65
2018-06-30T02:05:20.192Z,67.07
2018-06-30T02:06:20.192Z,66.88
2018-06-30T02:07:20.196Z,68.23
2018-06-30T02:08:20.196Z,66.78
2018-06-30T02:09:20.195Z,66.78
2018-06-30T02:10:41.216Z,67.07
2018-06-30T02:11:20.200Z,66.88
2018-06-30T02:12:20.203Z,68.52
2018-06-30T02:13:20.201Z,67.84
2018-06-30T02:14:20.202Z,67.33
2018-06-30T02:15:20.208Z,67.33
2018-06-30T02:16:41.214Z,67.71
2018-06-30T02:17:20.205Z,68.19
2018-06-30T02:18:20.205Z,68.58
2018-06-30T02:19:20.205Z,68.38
2018-06-30T02:20:20.209Z,69.54
2018-06-30T02:21:20.206Z,69.45
2018-06-30T02:22:41.222Z,70.02
2018-06-30T02:23:20.210Z,68.84
2018-06-30T02:24:20.214Z,69.02
2018-06-30T02:25:20.214Z,69.41
2018-06-30T02:26:20.212Z,69.99
2018-06-30T02:27:20.212Z,69.99
2018-06-30T02:28:41.225Z,69.99
2018-06-30T02:29:20.217Z,69.70
2018-06-30T02:30:20.220Z,70.28
2018-06-30T02:31:20.217Z,69.89
2018-06-30T02:32:20.217Z,70.18
2018-06-30T02:33:20.224Z,70.28
2018-06-30T02:34:41.231Z,72.88
2018-06-30T02:35:20.226Z,71.53
2018-06-30T02:36:20.226Z,72.78
2018-06-30T02:37:20.224Z,71.24
2018-06-30T02:38:20.222Z,71.81
2018-06-30T02:39:20.228Z,72.39
2018-06-30T02:40:41.243Z,73.65
2018-06-30T02:41:20.232Z,72.26
2018-06-30T02:42:20.233Z,71.24
2018-06-30T02:43:20.226Z,71.81
2018-06-30T02:44:20.234Z,72.01
2018-06-30T02:45:20.233Z,72.01
2018-06-30T02:46:41.244Z,71.91
2018-06-30T02:47:20.235Z,72.68
2018-06-30T02:48:20.233Z,71.81
2018-06-30T02:49:20.231Z,71.69
2018-06-30T02:50:20.238Z,71.59
2018-06-30T02:51:20.243Z,71.72
2018-06-30T02:52:41.259Z,72.45
2018-06-30T02:53:20.236Z,72.26
2018-06-30T02:54:20.242Z,72.45
2018-06-30T02:55:20.243Z,72.36
2018-06-30T02:56:20.246Z,71.88
2018-06-30T02:57:20.243Z,73.90
2018-06-30T02:58:41.253Z,73.61
2018-06-30T02:59:20.247Z,74.29
2018-06-30T03:00:20.252Z,73.32
2018-06-30T03:01:20.251Z,73.22
2018-06-30T03:02:20.244Z,72.65
2018-06-30T03:03:20.246Z,73.61
2018-06-30T03:04:41.258Z,73.90
2018-06-30T03:05:20.247Z,73.71
2018-06-30T03:06:20.249Z,73.71
2018-06-30T03:07:20.249Z,73.42
2018-06-30T03:08:20.248Z,74.09
2018-06-30T03:09:20.256Z,73.90
2018-06-30T03:10:41.263Z,75.34
2018-06-30T03:11:20.257Z,74.44
2018-06-30T03:12:20.249Z,74.34
2018-06-30T03:13:20.255Z,74.34
2018-06-30T03:14:20.256Z,74.19
2018-06-30T03:15:20.256Z,75.98
2018-06-30T03:16:41.269Z,76.84
2018-06-30T03:17:20.258Z,75.49
2018-06-30T03:18:20.258Z,75.49
2018-06-30T03:19:20.256Z,74.54
2018-06-30T03:20:20.264Z,75.31
2018-06-30T03:21:20.261Z,74.73
2018-06-30T03:22:41.268Z,75.31
2018-06-30T03:23:20.264Z,75.98
2018-06-30T03:24:20.264Z,75.98
2018-06-30T03:25:20.261Z,76.17
2018-06-30T03:26:20.265Z,74.63
2018-06-30T03:27:20.264Z,74.82
2018-06-30T03:28:41.274Z,74.25
2018-06-30T03:29:20.264Z,74.54
2018-06-30T03:30:20.272Z,75.31
2018-06-30T03:31:20.274Z,77.71
2018-06-30T03:32:20.272Z,79.25
2018-06-30T03:33:20.270Z,77.13
2018-06-30T03:34:41.282Z,75.98
2018-06-30T03:35:20.267Z,75.79
2018-06-30T03:36:20.291Z,75.98
2018-06-30T03:37:20.269Z,75.98
2018-06-30T03:38:20.272Z,75.98
2018-06-30T03:39:20.272Z,76.17
2018-06-30T03:40:41.289Z,76.07
2018-06-30T03:41:20.273Z,75.79
2018-06-30T03:42:20.278Z,77.33
2018-06-30T03:43:20.276Z,76.75
2018-06-30T03:44:20.277Z,75.98
2018-06-30T03:45:20.275Z,75.88
2018-06-30T03:46:41.286Z,75.40
2018-06-30T03:47:20.281Z,75.59
2018-06-30T03:48:20.274Z,76.75
2018-06-30T03:49:20.277Z,75.69
2018-06-30T03:50:20.277Z,76.17
2018-06-30T03:51:20.277Z,78.67
2018-06-30T03:52:41.287Z,77.13
2018-06-30T03:53:20.284Z,77.33
2018-06-30T03:54:20.283Z,76.94
2018-06-30T03:55:20.279Z,76.75
2018-06-30T03:56:20.282Z,76.56
2018-06-30T03:57:20.285Z,76.52
2018-06-30T03:58:41.291Z,76.61
2018-06-30T03:59:20.282Z,75.94
2018-06-30T04:00:20.284Z,78.34
2018-06-30T04:01:20.284Z,81.32
2018-06-30T04:02:20.282Z,80.94
2018-06-30T04:03:20.287Z,78.34
2018-06-30T04:04:41.292Z,80.36
2018-06-30T04:05:20.284Z,78.25
2018-06-30T04:06:20.284Z,79.60
2018-06-30T04:07:20.286Z,79.11
2018-06-30T04:08:20.286Z,79.30
2018-06-30T04:09:20.284Z,80.75
2018-06-30T04:10:41.299Z,80.07
2018-06-30T04:11:20.292Z,79.11
2018-06-30T04:12:20.296Z,80.46
2018-06-30T04:13:20.285Z,81.61
2018-06-30T04:14:20.291Z,81.99
2018-06-30T04:15:20.289Z,80.94
2018-06-30T04:16:41.301Z,81.81
2018-06-30T04:17:20.292Z,79.69
2018-06-30T04:18:20.293Z,79.88
2018-06-30T04:19:20.289Z,80.55
2018-06-30T04:20:20.293Z,79.50
2018-06-30T04:21:20.292Z,79.88
2018-06-30T04:22:41.303Z,80.84
2018-06-30T04:23:20.293Z,80.65
2018-06-30T04:24:20.292Z,79.40
2018-06-30T04:25:20.296Z,79.79
2018-06-30T04:26:20.294Z,80.94
2018-06-30T04:27:20.296Z,81.81
2018-06-30T04:28:41.309Z,79.88
2018-06-30T04:29:20.294Z,80.55
2018-06-30T04:30:20.295Z,81.90
2018-06-30T04:31:20.304Z,81.32
2018-06-30T04:32:20.297Z,81.90
2018-06-30T04:33:20.328Z,82.76
2018-06-30T04:34:41.308Z,80.84
2018-06-30T04:35:20.306Z,81.32
2018-06-30T04:36:20.303Z,81.04
2018-06-30T04:37:20.299Z,79.60
2018-06-30T04:38:20.298Z,78.96
2018-06-30T04:39:20.299Z,79.25
2018-06-30T04:40:41.307Z,78.19
2018-06-30T04:41:20.309Z,78.48
2018-06-30T04:42:20.304Z,79.63
2018-06-30T04:43:20.306Z,78.86
2018-06-30T04:44:20.302Z,78.67
2018-06-30T04:45:20.356Z,78.86
2018-06-30T04:46:41.314Z,78.67
2018-06-30T04:47:20.304Z,78.48
2018-06-30T04:48:20.302Z,79.10
2018-06-30T04:49:20.303Z,78.81
2018-06-30T04:50:20.306Z,77.84
2018-06-30T04:51:20.306Z,76.01
2018-06-30T04:52:41.314Z,77.75
2018-06-30T04:53:20.351Z,76.78
2018-06-30T04:54:20.310Z,75.05
2018-06-30T04:55:20.307Z,75.54
2018-06-30T04:56:20.309Z,76.25
2018-06-30T04:57:20.306Z,76.25
2018-06-30T04:58:41.317Z,76.53
2018-06-30T04:59:20.309Z,76.25
2018-06-30T05:00:20.307Z,75.86
2018-06-30T05:01:20.315Z,76.06
2018-06-30T05:02:20.310Z,76.25
2018-06-30T05:03:20.317Z,75.76
2018-06-30T05:04:41.319Z,75.48
2018-06-30T05:05:20.314Z,75.09
2018-06-30T05:06:20.314Z,74.90
2018-06-30T05:07:20.312Z,75.03
2018-06-30T05:08:20.314Z,74.65
2018-06-30T05:09:20.312Z,75.32
2018-06-30T05:10:41.321Z,75.42
2018-06-30T05:11:20.317Z,74.16
2018-06-30T05:12:20.317Z,74.26
2018-06-30T05:13:20.319Z,72.43
2018-06-30T05:14:20.318Z,72.43
2018-06-30T05:15:20.312Z,71.12
2018-06-30T05:16:41.323Z,71.70
2018-06-30T05:17:20.314Z,71.98
2018-06-30T05:18:20.317Z,71.79
2018-06-30T05:19:20.317Z,71.60
2018-06-30T05:20:20.315Z,71.60
2018-06-30T05:21:20.317Z,72.08
2018-06-30T05:22:41.326Z,73.05
2018-06-30T05:23:20.314Z,72.08
2018-06-30T05:24:20.316Z,71.22
2018-06-30T05:25:20.322Z,70.19
2018-06-30T05:26:20.320Z,70.00
2018-06-30T05:27:20.318Z,70.38
2018-06-30T05:28:41.328Z,70.76
2018-06-30T05:29:20.318Z,70.32
2018-06-30T05:30:20.319Z,69.93
2018-06-30T05:31:20.321Z,69.93
2018-06-30T05:32:20.319Z,69.93
2018-06-30T05:33:20.358Z,70.06
2018-06-30T05:34:41.328Z,68.77
2018-06-30T05:35:20.318Z,70.16
2018-06-30T05:36:20.322Z,69.87
2018-06-30T05:37:20.322Z,68.81
2018-06-30T05:38:20.323Z,69.00
2018-06-30T05:39:20.323Z,68.43
2018-06-30T05:40:41.334Z,67.65
2018-06-30T05:41:20.324Z,67.40
2018-06-30T05:42:20.328Z,66.59
2018-06-30T05:43:20.327Z,67.65
2018-06-30T05:44:20.328Z,66.78
2018-06-30T05:45:20.323Z,67.27
2018-06-30T05:46:41.337Z,67.55
2018-06-30T05:47:20.333Z,67.59
2018-06-30T05:48:20.333Z,67.69
2018-06-30T05:49:20.329Z,68.55
2018-06-30T05:50:20.333Z,68.84
2018-06-30T05:51:20.328Z,69.00
2018-06-30T05:52:41.342Z,67.59
2018-06-30T05:53:20.333Z,66.72
2018-06-30T05:54:20.334Z,66.91
2018-06-30T05:55:20.337Z,67.01
2018-06-30T05:56:20.334Z,67.30
2018-06-30T05:57:20.335Z,67.11
2018-06-30T05:58:41.345Z,67.40
2018-06-30T05:59:20.395Z,68.36
2018-06-30T06:00:20.341Z,67.59
2018-06-30T06:01:20.345Z,66.82
2018-06-30T06:02:20.342Z,67.69
2018-06-30T06:03:20.341Z,66.91
2018-06-30T06:04:41.352Z,68.84
2018-06-30T06:05:20.344Z,67.11
2018-06-30T06:06:20.342Z,68.26
2018-06-30T06:07:20.346Z,67.69
2018-06-30T06:08:20.348Z,67.59
2018-06-30T06:09:20.346Z,67.49
2018-06-30T06:10:41.361Z,67.97
2018-06-30T06:11:20.351Z,67.20
2018-06-30T06:12:20.350Z,65.37
2018-06-30T06:13:20.354Z,65.20
2018-06-30T06:14:20.350Z,66.36
2018-06-30T06:15:20.393Z,66.56
2018-06-30T06:16:41.362Z,65.20
2018-06-30T06:17:20.356Z,65.30
2018-06-30T06:18:20.357Z,65.69
2018-06-30T06:19:20.357Z,65.78
2018-06-30T06:20:20.356Z,64.92
2018-06-30T06:21:20.359Z,64.63
2018-06-30T06:22:41.369Z,64.43
2018-06-30T06:23:20.358Z,65.40
2018-06-30T06:24:21.035Z,64.24
2018-06-30T06:25:20.356Z,64.63
2018-06-30T06:26:20.358Z,64.24
2018-06-30T06:27:20.359Z,63.95
2018-06-30T06:28:41.378Z,63.76
2018-06-30T06:29:20.368Z,64.27
2018-06-30T06:30:20.361Z,65.14
2018-06-30T06:31:20.361Z,64.37
2018-06-30T06:32:20.372Z,63.89
2018-06-30T06:33:20.365Z,63.40
2018-06-30T06:34:41.374Z,64.85
2018-06-30T06:35:20.362Z,65.78
2018-06-30T06:36:20.364Z,65.50
2018-06-30T06:37:20.372Z,65.20
2018-06-30T06:38:20.373Z,64.63
2018-06-30T06:39:20.370Z,66.56
2018-06-30T06:40:41.379Z,65.88
2018-06-30T06:41:20.369Z,65.50
2018-06-30T06:42:20.373Z,64.05
2018-06-30T06:43:20.380Z,64.85
2018-06-30T06:44:20.375Z,64.47
2018-06-30T06:45:20.380Z,63.79
2018-06-30T06:46:41.384Z,64.27
2018-06-30T06:47:20.373Z,65.24
2018-06-30T06:48:20.375Z,64.85
2018-06-30T06:49:20.374Z,63.21
2018-06-30T06:50:20.378Z,62.92
2018-06-30T06:51:20.381Z,63.02
2018-06-30T06:52:41.393Z,63.11
2018-06-30T06:53:20.379Z,63.11
2018-06-30T06:54:20.381Z,63.05
2018-06-30T06:55:20.384Z,63.73
2018-06-30T06:56:20.454Z,64.50
2018-06-30T06:57:20.380Z,64.08
2018-06-30T06:58:41.390Z,65.72
2018-06-30T06:59:20.383Z,65.34
2018-06-30T07:00:20.388Z,64.27
2018-06-30T07:01:20.387Z,63.69
2018-06-30T07:02:20.381Z,66.24
2018-06-30T07:03:20.393Z,65.27
2018-06-30T07:04:41.398Z,62.95
2018-06-30T07:05:20.392Z,62.85
2018-06-30T07:06:20.388Z,63.79
2018-06-30T07:07:20.386Z,64.59
2018-06-30T07:08:20.390Z,65.37
2018-06-30T07:09:20.392Z,63.05
2018-06-30T07:10:41.402Z,62.56
2018-06-30T07:11:20.398Z,62.37
2018-06-30T07:12:20.396Z,62.95
2018-06-30T07:13:20.389Z,62.47
2018-06-30T07:14:20.392Z,62.18
2018-06-30T07:15:20.397Z,63.76
2018-06-30T07:16:41.400Z,63.82
2018-06-30T07:17:20.395Z,62.79
2018-06-30T07:18:20.398Z,62.88
2018-06-30T07:19:20.663Z,62.79
2018-06-30T07:20:20.400Z,62.21
2018-06-30T07:21:20.398Z,62.21
2018-06-30T07:22:41.405Z,62.50
2018-06-30T07:23:20.399Z,62.40
2018-06-30T07:24:20.405Z,63.27
2018-06-30T07:25:20.401Z,64.72
2018-06-30T07:26:20.404Z,64.43
2018-06-30T07:27:20.404Z,63.95
2018-06-30T07:28:41.414Z,63.95
2018-06-30T07:29:20.407Z,62.50
2018-06-30T07:30:20.406Z,62.01
2018-06-30T07:31:20.411Z,62.50
2018-06-30T07:32:20.408Z,62.50
2018-06-30T07:33:20.408Z,62.01
2018-06-30T07:34:41.419Z,62.59
2018-06-30T07:35:20.408Z,62.01
2018-06-30T07:36:20.405Z,62.11
2018-06-30T07:37:20.421Z,64.34
2018-06-30T07:38:20.411Z,63.95
2018-06-30T07:39:20.411Z,64.62
2018-06-30T07:40:41.422Z,64.47
2018-06-30T07:41:20.412Z,63.85
2018-06-30T07:42:20.417Z,64.82
2018-06-30T07:43:20.423Z,63.89
2018-06-30T07:44:20.417Z,63.21
2018-06-30T07:45:20.416Z,62.92
2018-06-30T07:46:41.426Z,62.14
2018-06-30T07:47:20.421Z,63.21
2018-06-30T07:48:20.418Z,63.21
2018-06-30T07:49:20.421Z,63.01
2018-06-30T07:50:20.434Z,63.11
2018-06-30T07:51:20.424Z,62.82
2018-06-30T07:52:41.437Z,63.89
2018-06-30T07:53:20.422Z,63.31
2018-06-30T07:54:20.430Z,61.56
2018-06-30T07:55:20.430Z,61.27
2018-06-30T07:56:20.430Z,62.34
2018-06-30T07:57:20.427Z,62.53
2018-06-30T07:58:41.441Z,62.92
2018-06-30T07:59:20.432Z,62.63
2018-06-30T08:00:20.436Z,62.24
2018-06-30T08:01:20.445Z,63.21
2018-06-30T08:02:20.435Z,62.24
2018-06-30T08:03:20.435Z,62.14
2018-06-30T08:04:41.450Z,62.34
2018-06-30T08:05:20.624Z,62.56
2018-06-30T08:06:20.445Z,62.75
2018-06-30T08:07:20.500Z,63.14
2018-06-30T08:08:20.445Z,63.92
2018-06-30T08:09:20.444Z,63.92
2018-06-30T08:10:41.454Z,61.33
2018-06-30T08:11:20.448Z,61.30
2018-06-30T08:12:20.448Z,62.07
2018-06-30T08:13:20.449Z,62.07
2018-06-30T08:14:20.452Z,62.95
2018-06-30T08:15:20.453Z,62.75
2018-06-30T08:16:41.469Z,61.98
2018-06-30T08:17:20.457Z,63.24
2018-06-30T08:18:20.456Z,63.62
2018-06-30T08:19:20.462Z,62.37
2018-06-30T08:20:20.462Z,62.95
2018-06-30T08:21:20.465Z,63.43
2018-06-30T08:22:41.476Z,62.20
2018-06-30T08:23:20.465Z,62.10
2018-06-30T08:24:20.468Z,60.94
2018-06-30T08:25:20.470Z,60.27
2018-06-30T08:26:20.479Z,60.07
2018-06-30T08:27:20.473Z,60.55
2018-06-30T08:28:41.481Z,60.75
2018-06-30T08:29:20.475Z,61.33
2018-06-30T08:30:20.476Z,61.14
2018-06-30T08:31:20.477Z,61.55
2018-06-30T08:32:20.477Z,60.30
2018-06-30T08:33:20.479Z,59.91
2018-06-30T08:34:41.494Z,60.68
2018-06-30T08:35:20.483Z,59.61
2018-06-30T08:36:20.495Z,61.55
2018-06-30T08:37:20.487Z,60.78
2018-06-30T08:38:20.485Z,58.84
2018-06-30T08:39:20.490Z,58.74
2018-06-30T08:40:41.503Z,60.20
2018-06-30T08:41:20.489Z,61.07
2018-06-30T08:42:20.493Z,61.55
2018-06-30T08:43:20.496Z,59.71
2018-06-30T08:44:20.495Z,59.42
2018-06-30T08:45:20.496Z,59.13
2018-06-30T08:46:41.512Z,59.06
2018-06-30T08:47:20.505Z,58.67
2018-06-30T08:48:20.502Z,58.77
2018-06-30T08:49:20.501Z,58.19
2018-06-30T08:50:20.510Z,58.19
2018-06-30T08:51:20.512Z,58.97
2018-06-30T08:52:41.517Z,58.97
2018-06-30T08:53:20.510Z,58.97
2018-06-30T08:54:20.510Z,58.39
2018-06-30T08:55:20.552Z,58.00
2018-06-30T08:56:20.514Z,58.58
2018-06-30T08:57:20.517Z,57.80
2018-06-30T08:58:41.527Z,58.12
2018-06-30T08:59:20.514Z,57.73
2018-06-30T09:00:20.517Z,58.58
2018-06-30T09:01:20.521Z,58.48
2018-06-30T09:02:20.521Z,58.97
2018-06-30T09:03:20.522Z,57.64
2018-06-30T09:04:41.535Z,56.64
2018-06-30T09:05:20.528Z,56.96
2018-06-30T09:06:20.587Z,56.83
2018-06-30T09:07:20.529Z,56.83
2018-06-30T09:08:20.535Z,57.12
2018-06-30T09:09:20.528Z,56.54
2018-06-30T09:10:41.556Z,57.12
2018-06-30T09:11:20.534Z,57.44
2018-06-30T09:12:20.637Z,56.57
2018-06-30T09:13:20.537Z,56.67
2018-06-30T09:14:20.537Z,56.47
2018-06-30T09:15:20.537Z,56.67
2018-06-30T09:16:41.550Z,56.76
2018-06-30T09:17:20.542Z,56.09
2018-06-30T09:18:20.546Z,56.37
2018-06-30T09:19:20.542Z,56.67
2018-06-30T09:20:20.586Z,57.44
2018-06-30T09:21:20.547Z,56.57
2018-06-30T09:22:41.561Z,57.25
2018-06-30T09:23:20.552Z,57.44
2018-06-30T09:24:20.554Z,57.15
2018-06-30T09:25:20.551Z,57.64
2018-06-30T09:26:20.555Z,59.09
2018-06-30T09:27:20.558Z,57.28
2018-06-30T09:28:41.572Z,56.79
2018-06-30T09:29:20.560Z,55.73
2018-06-30T09:30:20.565Z,55.53
2018-06-30T09:31:20.566Z,55.85
2018-06-30T09:32:20.571Z,55.33
2018-06-30T09:33:20.568Z,55.65
2018-06-30T09:34:41.582Z,55.04
2018-06-30T09:35:20.575Z,56.34
2018-06-30T09:36:20.575Z,55.46
2018-06-30T09:37:20.576Z,55.07
2018-06-30T09:38:20.577Z,54.88
2018-06-30T09:39:20.586Z,54.88
2018-06-30T09:40:41.591Z,56.04
2018-06-30T09:41:20.584Z,56.72
2018-06-30T09:42:20.588Z,56.34
2018-06-30T09:43:20.587Z,56.52
2018-06-30T09:44:20.638Z,55.65
2018-06-30T09:45:20.590Z,55.00
2018-06-30T09:46:41.604Z,55.00
2018-06-30T09:47:20.601Z,54.13
2018-06-30T09:48:20.600Z,53.74
2018-06-30T09:49:20.599Z,53.83
2018-06-30T09:50:20.599Z,54.90
2018-06-30T09:51:20.608Z,55.90
2018-06-30T09:52:41.620Z,54.35
2018-06-30T09:53:20.609Z,53.77
2018-06-30T09:54:20.611Z,52.98
2018-06-30T09:55:20.615Z,52.37
2018-06-30T09:56:20.612Z,54.25
2018-06-30T09:57:20.619Z,53.28
2018-06-30T09:58:41.630Z,55.03
2018-06-30T09:59:20.624Z,52.89
2018-06-30T10:00:20.621Z,52.31
2018-06-30T10:01:20.624Z,51.92
2018-06-30T10:02:20.626Z,52.86
2018-06-30T10:03:20.631Z,52.69
2018-06-30T10:04:41.645Z,53.08
2018-06-30T10:05:20.636Z,52.89
2018-06-30T10:06:20.636Z,53.08
2018-06-30T10:07:20.639Z,52.01
2018-06-30T10:08:20.641Z,50.65
2018-06-30T10:09:20.646Z,51.82
2018-06-30T10:10:41.658Z,51.04
2018-06-30T10:11:20.647Z,52.11
2018-06-30T10:12:20.652Z,51.04
2018-06-30T10:13:20.660Z,51.92
2018-06-30T10:14:20.655Z,50.95
2018-06-30T10:15:20.661Z,52.01
2018-06-30T10:16:41.671Z,53.28
2018-06-30T10:17:20.664Z,52.01
2018-06-30T10:18:20.670Z,53.28
2018-06-30T10:19:20.684Z,49.78
2018-06-30T10:20:20.672Z,49.68
2018-06-30T10:21:20.680Z,49.68
2018-06-30T10:22:41.688Z,49.68
2018-06-30T10:23:20.681Z,49.68
2018-06-30T10:24:20.682Z,49.00
2018-06-30T10:25:20.682Z,47.74
2018-06-30T10:26:20.684Z,48.13
2018-06-30T10:27:20.687Z,48.58
2018-06-30T10:28:41.704Z,49.10
2018-06-30T10:29:20.690Z,50.16
2018-06-30T10:30:20.692Z,49.07
2018-06-30T10:31:20.742Z,49.39
2018-06-30T10:32:20.717Z,48.78
2018-06-30T10:33:20.694Z,50.56
2018-06-30T10:34:41.707Z,49.97
2018-06-30T10:35:20.703Z,48.90
2018-06-30T10:36:20.704Z,50.65
2018-06-30T10:37:20.707Z,52.01
2018-06-30T10:38:20.703Z,49.29
2018-06-30T10:39:20.706Z,48.83
2018-06-30T10:40:41.716Z,49.51
2018-06-30T10:41:20.709Z,48.25
2018-06-30T10:42:20.784Z,49.41
2018-06-30T10:43:20.713Z,49.41
2018-06-30T10:44:20.722Z,48.15
2018-06-30T10:45:20.718Z,48.63
2018-06-30T10:46:41.729Z,48.34
2018-06-30T10:47:20.723Z,47.86
2018-06-30T10:48:20.727Z,49.05
2018-06-30T10:49:20.725Z,47.49
2018-06-30T10:50:20.727Z,49.56
2018-06-30T10:51:20.734Z,48.17
2018-06-30T10:52:41.745Z,46.61
2018-06-30T10:53:20.735Z,46.32
2018-06-30T10:54:20.738Z,46.42
2018-06-30T10:55:20.791Z,45.64
2018-06-30T10:56:20.742Z,46.32
2018-06-30T10:57:20.742Z,46.73
2018-06-30T10:58:41.753Z,47.52
2018-06-30T10:59:20.745Z,46.83
2018-06-30T11:00:20.760Z,47.44
2018-06-30T11:01:20.746Z,45.68
2018-06-30T11:02:20.752Z,45.98
2018-06-30T11:03:20.756Z,46.44
2018-06-30T11:04:41.766Z,47.25
2018-06-30T11:05:20.845Z,46.27
2018-06-30T11:06:20.763Z,47.05
2018-06-30T11:07:20.761Z,45.90
2018-06-30T11:08:20.767Z,47.07
2018-06-30T11:09:20.770Z,48.14
2018-06-30T11:10:41.785Z,46.12
2018-06-30T11:11:20.774Z,45.64
2018-06-30T11:12:20.775Z,43.88
2018-06-30T11:13:20.778Z,43.47
2018-06-30T11:14:20.781Z,43.47
2018-06-30T11:15:20.789Z,44.05
2018-06-30T11:16:41.800Z,44.64
2018-06-30T11:17:20.789Z,45.51
2018-06-30T11:18:20.791Z,45.42
2018-06-30T11:19:20.796Z,43.18
2018-06-30T11:20:20.802Z,43.66
2018-06-30T11:21:20.801Z,43.95
2018-06-30T11:22:41.811Z,43.08
2018-06-30T11:23:20.808Z,44.85
2018-06-30T11:25:20.836Z,41.95
2018-06-30T11:26:20.829Z,42.63
2018-06-30T11:27:20.836Z,41.54
2018-06-30T11:28:41.849Z,43.32
2018-06-30T11:29:22.255Z,43.90
2018-06-30T11:30:41.855Z,43.22
2018-06-30T11:31:20.847Z,43.19
2018-06-30T11:32:20.848Z,44.19
2018-06-30T11:33:41.862Z,41.95
2018-06-30T11:34:22.243Z,43.22
2018-06-30T11:35:41.874Z,43.33
2018-06-30T11:36:20.867Z,41.97
2018-06-30T11:37:20.873Z,41.66
2018-06-30T11:38:41.879Z,41.07
2018-06-30T11:39:20.876Z,40.99
2018-06-30T11:40:41.967Z,41.87
2018-06-30T11:41:20.884Z,42.16
2018-06-30T11:42:20.884Z,42.68
2018-06-30T11:43:41.903Z,41.11
2018-06-30T11:44:20.900Z,42.09
2018-06-30T11:45:41.916Z,42.99
2018-06-30T11:46:20.905Z,43.08
2018-06-30T11:47:20.911Z,41.74
2018-06-30T11:48:41.931Z,41.05
2018-06-30T11:49:20.923Z,41.64
2018-06-30T11:50:41.942Z,40.17
2018-06-30T11:51:20.935Z,41.25
2018-06-30T11:52:20.947Z,40.56
2018-06-30T11:53:41.963Z,39.98
2018-06-30T11:54:20.949Z,39.37
2018-06-30T11:55:41.971Z,39.86
2018-06-30T11:56:20.966Z,42.32
2018-06-30T11:57:20.976Z,41.93
2018-06-30T11:58:41.991Z,40.86
2018-06-30T11:59:20.989Z,40.47
2018-06-30T12:00:42.023Z,40.39
2018-06-30T12:01:20.998Z,40.47
2018-06-30T12:02:21.006Z,39.80
2018-06-30T12:03:42.030Z,40.19
2018-06-30T12:04:21.717Z,39.02
2018-06-30T12:05:42.049Z,40.76
2018-06-30T12:06:21.035Z,40.74
2018-06-30T12:07:21.042Z,41.33
2018-06-30T12:08:42.062Z,41.52
2018-06-30T12:09:21.167Z,38.69
2018-06-30T12:10:42.126Z,38.98
2018-06-30T12:11:21.070Z,39.69
2018-06-30T12:12:21.076Z,41.64
2018-06-30T12:13:42.092Z,40.47
2018-06-30T12:14:21.095Z,39.20
2018-06-30T12:15:42.121Z,38.71
2018-06-30T12:16:21.107Z,39.98
2018-06-30T12:17:21.118Z,39.98
2018-06-30T12:18:42.199Z,38.71
2018-06-30T12:19:21.128Z,38.71
2018-06-30T12:20:42.146Z,42.15
2018-06-30T12:21:21.137Z,39.92
2018-06-30T12:22:21.147Z,42.07
2018-06-30T12:23:42.163Z,39.35
2018-06-30T12:24:21.159Z,40.14
2018-06-30T12:25:42.180Z,38.76
2018-06-30T12:26:21.178Z,38.28
2018-06-30T12:27:21.182Z,38.16
2018-06-30T12:28:42.195Z,38.63
2018-06-30T12:29:21.192Z,39.02
2018-06-30T12:30:42.211Z,37.43
2018-06-30T12:31:21.208Z,39.02
2018-06-30T12:32:21.274Z,38.32
2018-06-30T12:33:42.235Z,38.32
2018-06-30T12:34:21.224Z,38.90
2018-06-30T12:35:42.238Z,39.02
2018-06-30T12:36:21.236Z,38.24
2018-06-30T12:37:21.245Z,39.22
2018-06-30T12:38:42.251Z,36.87
2018-06-30T12:39:21.264Z,37.57
2018-06-30T12:40:42.266Z,36.98
2018-06-30T12:41:21.263Z,36.57
2018-06-30T12:42:21.269Z,36.77
2018-06-30T12:43:42.288Z,39.04
2018-06-30T12:44:21.278Z,39.53
2018-06-30T12:45:42.305Z,38.16
2018-06-30T12:46:21.291Z,37.10
2018-06-30T12:47:21.295Z,36.30
2018-06-30T12:48:42.314Z,36.38
2018-06-30T12:49:21.305Z,36.67
2018-06-30T12:50:42.320Z,36.87
2018-06-30T12:51:21.320Z,39.80
2018-06-30T12:52:21.327Z,38.06
2018-06-30T12:53:42.336Z,38.16